createdAt,value
2022-08-02T00:00:46.759Z,11.25
2022-08-02T00:03:15.106Z,12.18
2022-08-02T00:05:43.737Z,11.75
2022-08-02T00:08:23.155Z,12.65
2022-08-02T00:10:52.324Z,14.68
2022-08-02T00:13:20.719Z,12.48
2022-08-02T00:15:49.081Z,12.43
2022-08-02T00:18:18.164Z,13.27
2022-08-02T00:20:47.152Z,13.88
2022-08-02T00:23:15.491Z,12.05
2022-08-02T00:25:55.366Z,11.25
2022-08-02T00:28:27.955Z,10.82
2022-08-02T00:30:58.151Z,11.43
2022-08-02T00:34:04.855Z,12.10
2022-08-02T00:36:16.069Z,10.20
2022-08-02T00:38:44.683Z,12.32
2022-08-02T00:41:16.932Z,12.63
2022-08-02T00:43:45.974Z,19.17
2022-08-02T00:46:15.391Z,15.10
2022-08-02T00:48:44.066Z,11.45
2022-08-02T00:51:12.806Z,12.65
2022-08-02T00:53:42.014Z,16.25
2022-08-02T00:56:10.663Z,14.98
2022-08-02T00:58:40.640Z,15.70
2022-08-02T01:01:09.207Z,10.85
2022-08-02T01:03:37.577Z,14.45
2022-08-02T01:06:13.386Z,13.48
2022-08-02T01:08:42.031Z,13.15
2022-08-02T01:11:12.302Z,14.65
2022-08-02T01:13:42.100Z,18.02
2022-08-02T01:16:15.555Z,15.70
2022-08-02T01:18:49.127Z,15.57
2022-08-02T01:21:39.389Z,15.35
2022-08-02T01:24:31.868Z,12.20
2022-08-02T01:27:13.572Z,11.63
2022-08-02T01:29:46.770Z,17.17
2022-08-02T01:32:18.867Z,13.23
2022-08-02T01:34:55.465Z,15.77
2022-08-02T01:37:29.889Z,13.80
2022-08-02T01:40:03.874Z,15.68
2022-08-02T01:42:33.906Z,14.45
2022-08-02T01:45:04.912Z,17.60
2022-08-02T01:47:37.754Z,18.00
2022-08-02T01:50:08.756Z,15.80
2022-08-02T01:52:40.096Z,15.02
2022-08-02T01:55:35.333Z,15.13
2022-08-02T01:58:18.032Z,17.17
2022-08-02T02:00:49.516Z,15.25
2022-08-02T02:03:23.293Z,15.77
2022-08-02T02:05:53.361Z,17.98
2022-08-02T02:08:27.024Z,16.23
2022-08-02T02:10:57.309Z,24.02
2022-08-02T02:13:33.317Z,19.85
2022-08-02T02:16:06.071Z,19.90
2022-08-02T02:18:40.607Z,21.02
2022-08-02T02:21:09.066Z,20.63
2022-08-02T02:23:37.482Z,17.83
2022-08-02T02:26:07.333Z,18.38
2022-08-02T02:28:39.522Z,13.93
2022-08-02T02:31:11.173Z,17.00
2022-08-02T02:33:42.845Z,14.85
2022-08-02T02:36:13.116Z,16.58
2022-08-02T02:38:42.277Z,21.58
2022-08-02T02:41:11.778Z,16.48
2022-08-02T02:43:42.144Z,16.58
2022-08-02T02:46:12.629Z,17.80
2022-08-02T02:48:42.286Z,15.48
2022-08-02T02:51:13.850Z,20.85
2022-08-02T02:54:32.224Z,16.58
2022-08-02T02:56:33.487Z,16.63
2022-08-02T02:59:02.224Z,17.35
2022-08-02T03:01:55.759Z,15.57
2022-08-02T03:04:22.417Z,23.90
2022-08-02T03:06:50.935Z,16.63
2022-08-02T03:09:19.291Z,16.35
2022-08-02T03:11:48.128Z,20.85
2022-08-02T03:14:17.222Z,20.25
2022-08-02T03:16:48.316Z,13.20
2022-08-02T03:19:17.493Z,15.23
2022-08-02T03:21:46.690Z,17.95
2022-08-02T03:24:15.448Z,18.50
2022-08-02T03:26:56.231Z,12.18
2022-08-02T03:29:24.657Z,17.08
2022-08-02T03:31:54.584Z,15.85
2022-08-02T03:34:23.203Z,15.50
2022-08-02T03:36:55.150Z,17.25
2022-08-02T03:39:24.309Z,19.48
2022-08-02T03:41:53.167Z,18.60
2022-08-02T03:44:21.732Z,16.05
2022-08-02T03:46:50.289Z,18.95
2022-08-02T03:49:20.769Z,17.63
2022-08-02T03:51:49.891Z,19.17
2022-08-02T03:54:19.169Z,15.52
2022-08-02T03:56:47.715Z,16.88
2022-08-02T03:59:16.544Z,23.77
2022-08-02T04:01:44.849Z,17.80
2022-08-02T04:04:13.397Z,15.60
2022-08-02T04:06:43.055Z,21.73
2022-08-02T04:09:13.469Z,14.93
2022-08-02T04:11:41.746Z,17.85
2022-08-02T04:14:11.579Z,19.38
2022-08-02T04:16:43.865Z,17.15
2022-08-02T04:19:20.387Z,15.95
2022-08-02T04:21:52.711Z,19.88
2022-08-02T04:24:26.286Z,19.90
2022-08-02T04:26:57.832Z,15.55
2022-08-02T04:29:34.213Z,15.82
2022-08-02T04:32:02.939Z,16.05
2022-08-02T04:34:31.535Z,14.75
2022-08-02T04:37:02.240Z,17.88
2022-08-02T04:39:30.605Z,16.88
2022-08-02T04:41:58.941Z,14.98
2022-08-02T04:44:27.471Z,19.52
2022-08-02T04:46:56.753Z,17.15
2022-08-02T04:49:25.245Z,22.00
2022-08-02T04:51:53.572Z,21.08
2022-08-02T04:54:25.827Z,18.58
2022-08-02T04:56:54.153Z,16.77
2022-08-02T04:59:22.604Z,15.05
2022-08-02T05:01:51.114Z,16.58
2022-08-02T05:04:19.408Z,17.50
2022-08-02T05:06:47.784Z,21.13
2022-08-02T05:09:16.043Z,15.38
2022-08-02T05:11:45.868Z,17.25
2022-08-02T05:14:23.489Z,16.90
2022-08-02T05:16:51.823Z,21.92
2022-08-02T05:19:20.113Z,17.35
2022-08-02T05:21:48.492Z,16.30
2022-08-02T05:24:16.930Z,16.83
2022-08-02T05:26:46.698Z,17.85
2022-08-02T05:29:14.988Z,18.40
2022-08-02T05:31:43.318Z,18.30
2022-08-02T05:34:12.251Z,20.02
2022-08-02T05:36:42.347Z,22.63
2022-08-02T05:39:11.608Z,17.48
2022-08-02T05:41:48.519Z,22.90
2022-08-02T05:44:16.981Z,18.75
2022-08-02T05:46:45.238Z,19.52
2022-08-02T05:49:16.264Z,19.23
2022-08-02T05:51:53.701Z,20.15
2022-08-02T05:54:28.690Z,21.85
2022-08-02T05:57:06.158Z,22.10
2022-08-02T05:59:41.377Z,18.83
2022-08-02T06:02:16.707Z,22.08
2022-08-02T06:04:57.969Z,18.67
2022-08-02T06:07:26.538Z,18.92
2022-08-02T06:09:55.341Z,18.73
2022-08-02T06:12:30.446Z,17.38
2022-08-02T06:15:00.181Z,17.88
2022-08-02T06:17:29.372Z,17.67
2022-08-02T06:19:58.754Z,16.13
2022-08-02T06:22:35.897Z,16.73
2022-08-02T06:25:06.503Z,16.02
2022-08-02T06:27:43.072Z,17.65
2022-08-02T06:30:12.466Z,19.02
2022-08-02T06:32:41.459Z,15.60
2022-08-02T06:35:10.421Z,16.95
2022-08-02T06:37:49.280Z,32.88
2022-08-02T06:40:27.804Z,16.10
2022-08-02T06:43:12.183Z,24.27
2022-08-02T06:45:41.115Z,17.10
2022-08-02T06:48:10.371Z,22.20
2022-08-02T06:50:39.835Z,15.73
2022-08-02T06:53:08.794Z,16.95
2022-08-02T06:55:43.561Z,17.23
2022-08-02T06:58:14.511Z,18.70
2022-08-02T07:00:44.064Z,15.35
2022-08-02T07:06:09.428Z,16.20
2022-08-02T07:08:39.008Z,16.52
2022-08-02T07:11:07.883Z,18.90
2022-08-02T07:13:39.866Z,18.80
2022-08-02T07:16:08.997Z,19.67
2022-08-02T07:18:37.412Z,16.95
2022-08-02T07:21:06.293Z,16.67
2022-08-02T07:23:37.260Z,16.90
2022-08-02T07:26:06.055Z,13.13
2022-08-02T07:28:34.458Z,17.00
2022-08-02T07:31:04.211Z,20.23
2022-08-02T07:33:38.165Z,15.18
2022-08-02T07:36:09.789Z,14.00
2022-08-02T07:38:45.588Z,16.77
2022-08-02T07:41:14.085Z,11.70
2022-08-02T07:43:42.486Z,15.30
2022-08-02T07:46:12.328Z,19.98
2022-08-02T07:48:40.694Z,14.02
2022-08-02T07:51:12.004Z,14.93
2022-08-02T07:53:50.854Z,15.32
2022-08-02T07:56:20.268Z,13.73
2022-08-02T07:58:48.628Z,15.30
2022-08-02T08:01:18.634Z,12.93
2022-08-02T08:03:47.615Z,13.50
2022-08-02T08:06:16.359Z,15.60
2022-08-02T08:08:44.789Z,12.32
2022-08-02T08:11:13.187Z,11.32
2022-08-02T08:13:41.570Z,11.75
2022-08-02T08:16:10.013Z,12.02
2022-08-02T08:18:40.827Z,13.80
2022-08-02T08:21:10.155Z,9.48
2022-08-02T08:23:38.725Z,11.75
2022-08-02T08:26:13.921Z,10.25
2022-08-02T08:28:43.950Z,10.00
2022-08-02T08:31:12.507Z,14.90
2022-08-02T08:33:42.326Z,8.95
2022-08-02T08:36:10.651Z,11.02
2022-08-02T08:38:39.026Z,11.18
2022-08-02T08:41:08.278Z,11.32
2022-08-02T08:43:36.824Z,8.38
2022-08-02T08:46:06.165Z,8.52
2022-08-02T08:48:36.740Z,10.50
2022-08-02T08:51:11.812Z,9.98
2022-08-02T08:53:43.545Z,9.38
2022-08-02T08:56:16.327Z,6.55
2022-08-02T08:58:45.934Z,11.18
2022-08-02T09:01:15.425Z,6.65
2022-08-02T09:03:44.429Z,9.55
2022-08-02T09:06:14.172Z,5.57
2022-08-02T09:08:42.525Z,10.20
2022-08-02T09:11:15.909Z,7.55
2022-08-02T09:13:52.331Z,7.40
2022-08-02T09:16:31.961Z,9.13
2022-08-02T09:19:01.756Z,9.10
2022-08-02T09:21:39.152Z,6.50
2022-08-02T09:24:18.731Z,7.15
2022-08-02T09:26:48.159Z,5.95
2022-08-02T09:29:17.017Z,4.53
2022-08-02T09:31:49.770Z,8.32
2022-08-02T09:34:20.067Z,6.65
2022-08-02T09:36:54.659Z,5.95
2022-08-02T09:39:23.976Z,8.60
2022-08-02T09:41:53.298Z,7.70
2022-08-02T09:44:22.323Z,4.82
2022-08-02T09:46:50.702Z,7.05
2022-08-02T09:49:20.410Z,8.40
2022-08-02T09:51:53.325Z,8.23
2022-08-02T09:54:25.266Z,6.18
2022-08-02T09:56:55.566Z,5.68
2022-08-02T09:59:26.045Z,6.53
2022-08-02T10:02:01.305Z,7.18
2022-08-02T10:04:34.559Z,6.25
2022-08-02T10:07:22.818Z,7.07
2022-08-02T10:09:52.102Z,8.20
2022-08-02T10:12:22.433Z,5.78
2022-08-02T10:14:52.055Z,8.57
2022-08-02T10:17:21.230Z,3.90
2022-08-02T10:20:00.825Z,5.65
2022-08-02T10:22:34.869Z,7.45
2022-08-02T10:25:05.194Z,4.80
2022-08-02T10:27:49.321Z,5.32
2022-08-02T10:30:24.718Z,4.85
2022-08-02T10:32:55.196Z,8.35
2022-08-02T10:35:26.711Z,7.45
2022-08-02T10:38:01.319Z,6.88
2022-08-02T10:40:44.951Z,7.15
2022-08-02T10:43:14.286Z,5.57
2022-08-02T10:45:42.592Z,9.10
2022-08-02T10:48:14.770Z,6.80
2022-08-02T10:50:56.209Z,6.68
2022-08-02T10:53:31.084Z,8.80
2022-08-02T10:56:02.423Z,8.05
2022-08-02T10:58:32.862Z,2.45
2022-08-02T11:01:06.350Z,7.57
2022-08-02T11:03:40.090Z,5.18
2022-08-02T11:06:25.423Z,5.70
2022-08-02T11:09:33.595Z,4.00
2022-08-02T11:12:05.043Z,8.27
2022-08-02T11:14:35.331Z,6.72
2022-08-02T11:17:11.209Z,9.40
2022-08-02T11:20:19.336Z,4.25
2022-08-02T11:22:49.438Z,7.80
2022-08-02T11:26:01.365Z,7.55
2022-08-02T11:28:25.655Z,3.97
2022-08-02T11:31:02.799Z,6.40
2022-08-02T11:33:36.982Z,5.70
2022-08-02T11:36:10.516Z,5.18
2022-08-02T11:38:38.865Z,6.18
2022-08-02T11:41:09.845Z,10.32
2022-08-02T11:43:39.984Z,6.82
2022-08-02T11:46:15.234Z,4.90
2022-08-02T11:48:44.935Z,7.22
2022-08-02T11:51:14.818Z,9.25
2022-08-02T11:53:48.132Z,6.88
2022-08-02T11:56:24.912Z,8.82
2022-08-02T11:59:07.339Z,7.88
2022-08-02T12:01:45.432Z,7.00
2022-08-02T12:04:22.969Z,11.80
2022-08-02T12:06:57.001Z,6.97
2022-08-02T12:09:27.460Z,8.98
2022-08-02T12:11:58.154Z,6.95
2022-08-02T12:14:28.661Z,8.45
2022-08-02T12:17:14.568Z,11.75
2022-08-02T12:19:43.790Z,7.82
2022-08-02T12:22:18.691Z,9.68
2022-08-02T12:24:50.222Z,10.88
2022-08-02T12:27:36.578Z,9.43
2022-08-02T12:30:08.669Z,8.95
2022-08-02T12:32:37.455Z,9.20
2022-08-02T12:35:12.197Z,8.75
2022-08-02T12:37:42.186Z,9.30
2022-08-02T12:40:27.422Z,7.50
2022-08-02T12:42:59.541Z,9.77
2022-08-02T12:45:41.208Z,7.00
2022-08-02T12:48:10.753Z,7.07
2022-08-02T12:50:41.211Z,8.48
2022-08-02T12:53:12.286Z,8.00
2022-08-02T12:56:00.913Z,8.68
2022-08-02T12:58:50.101Z,9.25
2022-08-02T13:01:23.829Z,8.63
2022-08-02T13:04:07.457Z,7.22
2022-08-02T13:06:44.580Z,8.85
2022-08-02T13:09:19.531Z,8.82
2022-08-02T13:11:48.089Z,8.18
2022-08-02T13:14:18.805Z,10.40
2022-08-02T13:16:48.248Z,12.77
2022-08-02T13:19:17.468Z,10.10
2022-08-02T13:22:02.613Z,11.68
2022-08-02T13:24:40.818Z,8.90
2022-08-02T13:27:22.041Z,8.73
2022-08-02T13:29:52.603Z,13.55
2022-08-02T13:32:22.422Z,9.70
2022-08-02T13:34:51.010Z,6.88
2022-08-02T13:37:20.436Z,10.35
2022-08-02T13:40:11.775Z,10.27
2022-08-02T13:42:38.762Z,8.05
2022-08-02T13:45:12.450Z,7.63
2022-08-02T13:48:03.221Z,9.93
2022-08-02T13:50:32.961Z,10.68
2022-08-02T13:53:02.023Z,9.48
2022-08-02T13:55:30.637Z,5.85
2022-08-02T13:57:59.156Z,6.47
2022-08-02T14:00:34.855Z,7.30
2022-08-02T14:03:06.104Z,8.50
2022-08-02T14:05:39.321Z,9.15
2022-08-02T14:08:17.620Z,6.07
2022-08-02T14:10:46.466Z,6.57
2022-08-02T14:13:15.009Z,7.18
2022-08-02T14:15:45.382Z,7.53
2022-08-02T14:18:15.645Z,9.95
2022-08-02T14:20:45.889Z,5.07
2022-08-02T14:23:14.427Z,4.68
2022-08-02T14:25:43.052Z,7.47
2022-08-02T14:28:11.374Z,8.15
2022-08-02T14:30:39.891Z,9.40
2022-08-02T14:33:10.586Z,6.45
2022-08-02T14:35:39.141Z,6.25
2022-08-02T14:38:07.698Z,7.05
2022-08-02T14:40:36.040Z,7.13
2022-08-02T14:43:05.115Z,8.20
2022-08-02T14:45:40.581Z,7.32
2022-08-02T14:48:12.449Z,7.20
2022-08-02T14:50:41.154Z,6.82
2022-08-02T14:53:12.237Z,8.65
2022-08-02T14:55:42.537Z,6.22
2022-08-02T14:58:11.287Z,5.88
2022-08-02T15:00:41.123Z,7.55
2022-08-02T15:03:12.290Z,9.82
2022-08-02T15:05:40.862Z,12.10
2022-08-02T15:08:09.157Z,6.40
2022-08-02T15:10:37.688Z,9.00
2022-08-02T15:13:06.047Z,7.65
2022-08-02T15:15:43.078Z,10.25
2022-08-02T15:18:15.529Z,10.18
2022-08-02T15:20:51.536Z,8.30
2022-08-02T15:23:34.849Z,10.65
2022-08-02T15:26:06.946Z,10.07
2022-08-02T15:28:35.602Z,9.40
2022-08-02T15:31:04.004Z,7.75
2022-08-02T15:33:33.684Z,8.13
2022-08-02T15:36:02.104Z,9.65
2022-08-02T15:38:30.510Z,10.63
2022-08-02T15:40:58.862Z,8.60
2022-08-02T15:43:27.568Z,7.50
2022-08-02T15:45:55.974Z,6.72
2022-08-02T15:48:24.411Z,8.38
2022-08-02T15:50:54.123Z,8.80
2022-08-02T15:53:22.476Z,9.35
2022-08-02T15:55:52.787Z,8.88
2022-08-02T15:58:44.316Z,11.30
2022-08-02T16:01:13.213Z,8.85
2022-08-02T16:03:41.681Z,7.05
2022-08-02T16:06:11.808Z,12.48
2022-08-02T16:08:40.255Z,8.23
2022-08-02T16:11:22.342Z,7.13
2022-08-02T16:13:56.840Z,7.90
2022-08-02T16:16:26.868Z,8.75
2022-08-02T16:18:55.414Z,9.45
2022-08-02T16:21:25.740Z,8.85
2022-08-02T16:24:01.565Z,8.35
2022-08-02T16:26:34.588Z,8.18
2022-08-02T16:29:05.101Z,8.38
2022-08-02T16:31:33.440Z,7.78
2022-08-02T16:34:01.901Z,10.02
2022-08-02T16:36:31.683Z,9.40
2022-08-02T16:39:00.011Z,10.27
2022-08-02T16:41:51.091Z,9.93
2022-08-02T16:44:19.068Z,6.70
2022-08-02T16:47:01.400Z,9.95
2022-08-02T16:50:04.148Z,12.50
2022-08-02T16:52:21.072Z,10.25
2022-08-02T16:54:50.258Z,10.30
2022-08-02T16:57:19.519Z,9.20
2022-08-02T16:59:57.793Z,9.05
2022-08-02T17:02:27.983Z,9.45
2022-08-02T17:04:57.018Z,10.52
2022-08-02T17:08:15.064Z,10.77
2022-08-02T17:10:15.066Z,11.00
2022-08-02T17:12:51.247Z,12.50
2022-08-02T17:16:01.154Z,8.40
2022-08-02T17:18:08.779Z,8.65
2022-08-02T17:20:38.066Z,8.73
2022-08-02T17:23:16.348Z,10.10
2022-08-02T17:25:52.354Z,7.82
2022-08-02T17:28:21.226Z,8.75
2022-08-02T17:31:00.702Z,9.80
2022-08-02T17:33:32.620Z,10.10
2022-08-02T17:36:01.766Z,11.57
2022-08-02T17:38:32.388Z,13.40
2022-08-02T17:41:01.804Z,11.50
2022-08-02T17:43:32.752Z,9.18
2022-08-02T17:46:02.489Z,8.52
2022-08-02T17:48:55.327Z,9.38
2022-08-02T17:52:14.816Z,10.88
2022-08-02T17:54:18.817Z,11.55
2022-08-02T17:56:47.729Z,8.93
2022-08-02T17:59:20.150Z,8.80
2022-08-02T18:01:52.857Z,9.93
2022-08-02T18:04:27.709Z,8.80
2022-08-02T18:06:58.111Z,8.93
2022-08-02T18:09:28.439Z,10.20
2022-08-02T18:11:59.219Z,10.93
2022-08-02T18:14:27.562Z,11.82
2022-08-02T18:16:55.911Z,10.65
2022-08-02T18:22:12.884Z,8.90
2022-08-02T18:24:44.936Z,10.35
2022-08-02T18:27:14.194Z,11.38
2022-08-02T18:29:42.704Z,8.35
2022-08-02T18:32:11.880Z,9.88
2022-08-02T18:34:40.690Z,7.85
2022-08-02T18:37:16.013Z,8.10
2022-08-02T18:39:51.287Z,11.80
2022-08-02T18:42:20.555Z,10.23
2022-08-02T18:44:48.857Z,12.23
2022-08-02T18:47:17.271Z,8.43
2022-08-02T18:49:46.885Z,9.65
2022-08-02T18:52:31.289Z,9.82
2022-08-02T18:55:01.556Z,7.35
2022-08-02T18:58:18.631Z,11.60
2022-08-02T19:00:20.452Z,10.18
2022-08-02T19:02:49.242Z,9.30
2022-08-02T19:05:17.864Z,10.15
2022-08-02T19:07:51.321Z,10.23
2022-08-02T19:10:24.263Z,9.68
2022-08-02T19:12:53.617Z,7.65
2022-08-02T19:15:23.476Z,10.85
2022-08-02T19:17:55.588Z,8.68
2022-08-02T19:20:26.544Z,13.30
2022-08-02T19:22:57.775Z,9.23
2022-08-02T19:25:28.193Z,11.27
2022-08-02T19:28:05.109Z,12.50
2022-08-02T19:30:36.781Z,9.52
2022-08-02T19:33:09.465Z,10.07
2022-08-02T19:35:38.163Z,9.18
2022-08-02T19:38:27.598Z,9.20
2022-08-02T19:40:57.350Z,9.70
2022-08-02T19:44:22.977Z,9.77
2022-08-02T19:46:15.815Z,10.80
2022-08-02T19:48:46.129Z,8.40
2022-08-02T19:51:15.922Z,8.77
2022-08-02T19:54:04.261Z,8.80
2022-08-02T19:56:34.448Z,10.57
2022-08-02T19:59:03.078Z,9.27
2022-08-02T20:01:48.444Z,10.48
2022-08-02T20:04:22.177Z,8.95
2022-08-02T20:06:51.850Z,10.82
2022-08-02T20:09:23.329Z,11.95
2022-08-02T20:11:54.839Z,14.43
2022-08-02T20:14:26.811Z,12.57
2022-08-02T20:16:56.844Z,12.48
2022-08-02T20:19:29.038Z,12.02
2022-08-02T20:22:09.398Z,11.82
2022-08-02T20:24:37.766Z,11.95
2022-08-02T20:27:07.533Z,11.95
2022-08-02T20:29:43.133Z,12.27
2022-08-02T20:32:22.442Z,11.73
2022-08-02T20:34:52.776Z,11.27
2022-08-02T20:37:56.210Z,11.73
2022-08-02T20:40:17.133Z,11.27
2022-08-02T20:42:48.880Z,10.85
2022-08-02T20:45:17.635Z,12.52
2022-08-02T20:50:50.876Z,11.27
2022-08-02T20:53:23.486Z,12.05
2022-08-02T20:55:56.060Z,9.93
2022-08-02T20:58:26.990Z,9.15
2022-08-02T21:00:59.212Z,12.23
2022-08-02T21:03:38.747Z,11.55
2022-08-02T21:06:09.101Z,13.05
2022-08-02T21:08:38.183Z,11.02
2022-08-02T21:11:09.218Z,9.75
2022-08-02T21:13:46.773Z,12.55
2022-08-02T21:16:27.882Z,13.90
2022-08-02T21:19:00.110Z,14.32
2022-08-02T21:21:29.785Z,12.00
2022-08-02T21:23:59.947Z,11.48
2022-08-02T21:26:30.558Z,10.68
2022-08-02T21:29:03.555Z,12.35
2022-08-02T21:31:35.589Z,13.73
2022-08-02T21:36:54.175Z,13.40
2022-08-02T21:39:22.847Z,12.38
2022-08-02T21:41:51.341Z,11.70
2022-08-02T21:44:23.229Z,12.10
2022-08-02T21:46:53.841Z,14.95
2022-08-02T21:49:27.221Z,12.20
2022-08-02T21:52:09.575Z,12.18
2022-08-02T21:54:39.932Z,14.45
2022-08-02T21:57:15.972Z,13.70
2022-08-02T21:59:58.998Z,13.43
2022-08-02T22:02:30.659Z,15.23
2022-08-02T22:04:59.683Z,16.33
2022-08-02T22:07:38.346Z,11.80
2022-08-02T22:10:09.263Z,16.77
2022-08-02T22:12:37.861Z,17.08
2022-08-02T22:15:10.579Z,18.08
2022-08-02T22:20:30.608Z,16.65
2022-08-02T22:22:59.146Z,12.38
2022-08-02T22:25:36.939Z,14.88
2022-08-02T22:28:35.210Z,17.58
2022-08-02T22:30:57.590Z,14.80
2022-08-02T22:33:47.315Z,15.13
2022-08-02T22:36:29.297Z,16.13
2022-08-02T22:38:57.957Z,15.48
2022-08-02T22:41:33.178Z,13.45
2022-08-02T22:44:15.160Z,15.90
2022-08-02T22:46:50.119Z,14.32
2022-08-02T22:49:37.683Z,15.52
2022-08-02T22:52:08.108Z,15.90
2022-08-02T22:54:36.600Z,14.43
2022-08-02T22:57:06.427Z,14.15
2022-08-02T22:58:43.844Z,10.63
2022-08-02T22:59:03.016Z,14.00
2022-08-02T22:59:04.571Z,12.07
2022-08-02T22:59:35.929Z,18.85
2022-08-02T23:02:10.152Z,15.82
2022-08-02T23:04:39.224Z,17.02
2022-08-02T23:07:07.732Z,13.90
2022-08-02T23:09:36.096Z,15.82
2022-08-02T23:12:05.333Z,13.73
2022-08-02T23:14:33.654Z,15.30
2022-08-02T23:17:19.711Z,14.27
2022-08-02T23:19:52.068Z,16.63
2022-08-02T23:22:21.804Z,14.52
2022-08-02T23:24:59.103Z,14.52
2022-08-02T23:27:27.356Z,17.42
2022-08-02T23:29:55.954Z,15.73
2022-08-02T23:32:25.528Z,14.35
2022-08-02T23:34:56.309Z,14.40
2022-08-02T23:37:25.207Z,11.30
2022-08-02T23:39:53.613Z,16.88
2022-08-02T23:42:23.419Z,13.05
2022-08-02T23:44:51.779Z,16.13
2022-08-02T23:47:20.384Z,14.95
2022-08-02T23:49:49.140Z,17.17
2022-08-02T23:52:19.199Z,17.30
2022-08-02T23:54:47.722Z,16.13
2022-08-02T23:57:20.865Z,17.02
2022-08-02T23:59:51.338Z,19.75
